sensor_id;sensor_type;location;lat;lon;timestamp;P1;durP1;ratioP1;P2;durP2;ratioP2
69008;SDS011;56065;52.472;13.380;2024-03-25T00:00:23;5.53;;;1.70;;
69008;SDS011;56065;52.472;13.380;2024-03-25T00:02:50;4.70;;;1.50;;
69008;SDS011;56065;52.472;13.380;2024-03-25T00:05:16;5.43;;;1.60;;
69008;SDS011;56065;52.472;13.380;2024-03-25T00:07:47;4.78;;;1.30;;
69008;SDS011;56065;52.472;13.380;2024-03-25T00:10:13;4.73;;;1.43;;
69008;SDS011;56065;52.472;13.380;2024-03-25T00:12:39;6.28;;;1.20;;
69008;SDS011;56065;52.472;13.380;2024-03-25T00:15:04;6.17;;;1.57;;
69008;SDS011;56065;52.472;13.380;2024-03-25T00:17:30;4.90;;;1.70;;
69008;SDS011;56065;52.472;13.380;2024-03-25T00:19:55;5.55;;;1.60;;
69008;SDS011;56065;52.472;13.380;2024-03-25T00:22:21;5.70;;;1.60;;
69008;SDS011;56065;52.472;13.380;2024-03-25T00:24:47;4.60;;;1.25;;
69008;SDS011;56065;52.472;13.380;2024-03-25T00:27:13;4.23;;;1.33;;
69008;SDS011;56065;52.472;13.380;2024-03-25T00:29:38;4.22;;;1.10;;
69008;SDS011;56065;52.472;13.380;2024-03-25T00:32:04;5.07;;;1.30;;
69008;SDS011;56065;52.472;13.380;2024-03-25T00:34:30;4.25;;;1.40;;
69008;SDS011;56065;52.472;13.380;2024-03-25T00:36:56;6.40;;;1.47;;
69008;SDS011;56065;52.472;13.380;2024-03-25T00:39:21;4.23;;;1.20;;
69008;SDS011;56065;52.472;13.380;2024-03-25T00:41:49;4.25;;;1.25;;
69008;SDS011;56065;52.472;13.380;2024-03-25T00:44:14;5.60;;;1.50;;
69008;SDS011;56065;52.472;13.380;2024-03-25T00:46:40;5.60;;;1.47;;
69008;SDS011;56065;52.472;13.380;2024-03-25T00:49:06;5.10;;;1.58;;
69008;SDS011;56065;52.472;13.380;2024-03-25T00:51:32;5.40;;;1.52;;
69008;SDS011;56065;52.472;13.380;2024-03-25T00:53:57;5.97;;;1.43;;
69008;SDS011;56065;52.472;13.380;2024-03-25T00:56:23;6.30;;;1.50;;
69008;SDS011;56065;52.472;13.380;2024-03-25T00:58:48;4.97;;;1.47;;
69008;SDS011;56065;52.472;13.380;2024-03-25T01:01:13;5.40;;;1.33;;
69008;SDS011;56065;52.472;13.380;2024-03-25T01:03:39;5.73;;;1.70;;
69008;SDS011;56065;52.472;13.380;2024-03-25T01:06:04;5.03;;;1.57;;
69008;SDS011;56065;52.472;13.380;2024-03-25T01:08:30;6.57;;;1.70;;
69008;SDS011;56065;52.472;13.380;2024-03-25T01:10:55;7.00;;;1.97;;
69008;SDS011;56065;52.472;13.380;2024-03-25T01:13:20;5.87;;;1.90;;
69008;SDS011;56065;52.472;13.380;2024-03-25T01:15:46;5.60;;;1.55;;
69008;SDS011;56065;52.472;13.380;2024-03-25T01:18:11;5.23;;;1.57;;
69008;SDS011;56065;52.472;13.380;2024-03-25T01:20:37;6.33;;;2.03;;
69008;SDS011;56065;52.472;13.380;2024-03-25T01:23:03;7.35;;;1.73;;
69008;SDS011;56065;52.472;13.380;2024-03-25T01:25:29;6.57;;;1.90;;
69008;SDS011;56065;52.472;13.380;2024-03-25T01:27:55;6.15;;;1.60;;
69008;SDS011;56065;52.472;13.380;2024-03-25T01:30:20;4.87;;;1.50;;
69008;SDS011;56065;52.472;13.380;2024-03-25T01:32:45;5.87;;;1.77;;
69008;SDS011;56065;52.472;13.380;2024-03-25T01:35:13;5.90;;;1.83;;
69008;SDS011;56065;52.472;13.380;2024-03-25T01:37:39;5.07;;;1.83;;
69008;SDS011;56065;52.472;13.380;2024-03-25T01:40:04;4.57;;;1.30;;
69008;SDS011;56065;52.472;13.380;2024-03-25T01:42:30;5.87;;;1.20;;
69008;SDS011;56065;52.472;13.380;2024-03-25T01:44:55;3.63;;;0.80;;
69008;SDS011;56065;52.472;13.380;2024-03-25T01:47:21;3.95;;;0.90;;
69008;SDS011;56065;52.472;13.380;2024-03-25T01:49:47;6.03;;;1.00;;
69008;SDS011;56065;52.472;13.380;2024-03-25T01:52:14;2.47;;;0.80;;
69008;SDS011;56065;52.472;13.380;2024-03-25T01:54:40;3.58;;;0.70;;
69008;SDS011;56065;52.472;13.380;2024-03-25T01:57:05;3.60;;;0.73;;
69008;SDS011;56065;52.472;13.380;2024-03-25T01:59:31;2.53;;;0.60;;
69008;SDS011;56065;52.472;13.380;2024-03-25T02:01:57;3.67;;;0.60;;
69008;SDS011;56065;52.472;13.380;2024-03-25T02:04:22;3.67;;;0.50;;
69008;SDS011;56065;52.472;13.380;2024-03-25T02:06:48;3.87;;;0.80;;
69008;SDS011;56065;52.472;13.380;2024-03-25T02:09:14;3.50;;;0.80;;
69008;SDS011;56065;52.472;13.380;2024-03-25T02:11:40;3.92;;;0.50;;
69008;SDS011;56065;52.472;13.380;2024-03-25T02:14:07;2.70;;;0.60;;
69008;SDS011;56065;52.472;13.380;2024-03-25T02:16:32;2.50;;;0.50;;
69008;SDS011;56065;52.472;13.380;2024-03-25T02:18:57;5.30;;;0.67;;
69008;SDS011;56065;52.472;13.380;2024-03-25T02:21:23;2.57;;;0.60;;
69008;SDS011;56065;52.472;13.380;2024-03-25T02:23:48;3.00;;;0.60;;
69008;SDS011;56065;52.472;13.380;2024-03-25T02:26:17;2.83;;;0.70;;
69008;SDS011;56065;52.472;13.380;2024-03-25T02:28:42;4.13;;;0.90;;
69008;SDS011;56065;52.472;13.380;2024-03-25T02:31:08;3.83;;;0.80;;
69008;SDS011;56065;52.472;13.380;2024-03-25T02:33:33;4.77;;;1.13;;
69008;SDS011;56065;52.472;13.380;2024-03-25T02:35:58;6.10;;;1.40;;
69008;SDS011;56065;52.472;13.380;2024-03-25T02:38:23;4.70;;;1.20;;
69008;SDS011;56065;52.472;13.380;2024-03-25T02:40:49;6.03;;;1.57;;
69008;SDS011;56065;52.472;13.380;2024-03-25T02:43:15;5.30;;;1.17;;
69008;SDS011;56065;52.472;13.380;2024-03-25T02:45:41;4.87;;;1.03;;
69008;SDS011;56065;52.472;13.380;2024-03-25T02:48:06;5.57;;;1.60;;
69008;SDS011;56065;52.472;13.380;2024-03-25T02:50:32;5.03;;;1.27;;
69008;SDS011;56065;52.472;13.380;2024-03-25T02:52:57;5.60;;;1.30;;
69008;SDS011;56065;52.472;13.380;2024-03-25T02:55:22;6.40;;;2.23;;
69008;SDS011;56065;52.472;13.380;2024-03-25T02:57:48;5.37;;;1.50;;
69008;SDS011;56065;52.472;13.380;2024-03-25T03:00:13;6.10;;;1.73;;
69008;SDS011;56065;52.472;13.380;2024-03-25T03:02:39;5.53;;;1.30;;
69008;SDS011;56065;52.472;13.380;2024-03-25T03:05:04;6.20;;;1.40;;
69008;SDS011;56065;52.472;13.380;2024-03-25T03:07:30;5.63;;;1.40;;
69008;SDS011;56065;52.472;13.380;2024-03-25T03:09:55;7.13;;;1.40;;
69008;SDS011;56065;52.472;13.380;2024-03-25T03:12:20;5.50;;;1.33;;
69008;SDS011;56065;52.472;13.380;2024-03-25T03:14:46;6.43;;;1.00;;
69008;SDS011;56065;52.472;13.380;2024-03-25T03:17:11;4.20;;;1.10;;
69008;SDS011;56065;52.472;13.380;2024-03-25T03:19:36;4.22;;;1.00;;
69008;SDS011;56065;52.472;13.380;2024-03-25T03:22:01;4.70;;;1.40;;
69008;SDS011;56065;52.472;13.380;2024-03-25T03:24:27;5.43;;;0.90;;
69008;SDS011;56065;52.472;13.380;2024-03-25T03:26:52;4.50;;;1.00;;
69008;SDS011;56065;52.472;13.380;2024-03-25T03:29:18;6.80;;;1.20;;
69008;SDS011;56065;52.472;13.380;2024-03-25T03:31:43;5.18;;;1.15;;
69008;SDS011;56065;52.472;13.380;2024-03-25T03:34:09;5.10;;;1.07;;
69008;SDS011;56065;52.472;13.380;2024-03-25T03:36:34;6.30;;;1.47;;
69008;SDS011;56065;52.472;13.380;2024-03-25T03:38:59;3.83;;;0.80;;
69008;SDS011;56065;52.472;13.380;2024-03-25T03:41:24;6.17;;;0.93;;
69008;SDS011;56065;52.472;13.380;2024-03-25T03:43:50;4.77;;;1.03;;
69008;SDS011;56065;52.472;13.380;2024-03-25T03:46:15;4.17;;;0.97;;
69008;SDS011;56065;52.472;13.380;2024-03-25T03:48:40;5.10;;;1.03;;
69008;SDS011;56065;52.472;13.380;2024-03-25T03:51:06;6.75;;;1.30;;
69008;SDS011;56065;52.472;13.380;2024-03-25T03:53:32;3.87;;;0.87;;
69008;SDS011;56065;52.472;13.380;2024-03-25T03:56:02;22.52;;;2.53;;
69008;SDS011;56065;52.472;13.380;2024-03-25T03:58:31;4.40;;;0.88;;
69008;SDS011;56065;52.472;13.380;2024-03-25T04:00:57;4.40;;;0.97;;
69008;SDS011;56065;52.472;13.380;2024-03-25T04:03:23;3.65;;;0.90;;
69008;SDS011;56065;52.472;13.380;2024-03-25T04:05:49;5.80;;;1.00;;
69008;SDS011;56065;52.472;13.380;2024-03-25T04:08:14;3.88;;;0.85;;
69008;SDS011;56065;52.472;13.380;2024-03-25T04:10:39;4.40;;;1.00;;
69008;SDS011;56065;52.472;13.380;2024-03-25T04:13:05;4.90;;;1.00;;
69008;SDS011;56065;52.472;13.380;2024-03-25T04:15:35;4.43;;;1.23;;
69008;SDS011;56065;52.472;13.380;2024-03-25T04:18:01;3.92;;;1.08;;
69008;SDS011;56065;52.472;13.380;2024-03-25T04:20:27;2.97;;;0.67;;
69008;SDS011;56065;52.472;13.380;2024-03-25T04:22:55;3.92;;;0.88;;
69008;SDS011;56065;52.472;13.380;2024-03-25T04:25:21;3.97;;;1.07;;
69008;SDS011;56065;52.472;13.380;2024-03-25T04:27:47;4.60;;;1.25;;
69008;SDS011;56065;52.472;13.380;2024-03-25T04:30:12;4.73;;;0.90;;
69008;SDS011;56065;52.472;13.380;2024-03-25T04:32:38;3.40;;;0.93;;
69008;SDS011;56065;52.472;13.380;2024-03-25T04:35:07;3.47;;;1.02;;
69008;SDS011;56065;52.472;13.380;2024-03-25T04:37:33;4.73;;;0.93;;
69008;SDS011;56065;52.472;13.380;2024-03-25T04:39:59;4.57;;;1.05;;
69008;SDS011;56065;52.472;13.380;2024-03-25T04:42:24;6.60;;;1.00;;
69008;SDS011;56065;52.472;13.380;2024-03-25T04:44:50;5.22;;;1.20;;
69008;SDS011;56065;52.472;13.380;2024-03-25T04:47:15;8.37;;;1.40;;
69008;SDS011;56065;52.472;13.380;2024-03-25T04:49:41;5.67;;;1.00;;
69008;SDS011;56065;52.472;13.380;2024-03-25T04:52:06;16.65;;;1.98;;
69008;SDS011;56065;52.472;13.380;2024-03-25T04:54:32;4.03;;;0.90;;
69008;SDS011;56065;52.472;13.380;2024-03-25T04:56:57;5.97;;;1.27;;
69008;SDS011;56065;52.472;13.380;2024-03-25T04:59:22;5.73;;;1.30;;
69008;SDS011;56065;52.472;13.380;2024-03-25T05:01:48;4.43;;;1.20;;
69008;SDS011;56065;52.472;13.380;2024-03-25T05:04:13;5.87;;;1.43;;
69008;SDS011;56065;52.472;13.380;2024-03-25T05:06:38;5.87;;;1.10;;
69008;SDS011;56065;52.472;13.380;2024-03-25T05:09:03;6.07;;;1.20;;
69008;SDS011;56065;52.472;13.380;2024-03-25T05:11:30;6.68;;;1.30;;
69008;SDS011;56065;52.472;13.380;2024-03-25T05:13:56;6.82;;;1.30;;
69008;SDS011;56065;52.472;13.380;2024-03-25T05:16:21;6.63;;;1.60;;
69008;SDS011;56065;52.472;13.380;2024-03-25T05:18:46;4.50;;;1.33;;
69008;SDS011;56065;52.472;13.380;2024-03-25T05:21:12;4.87;;;1.20;;
69008;SDS011;56065;52.472;13.380;2024-03-25T05:23:37;4.77;;;1.10;;
69008;SDS011;56065;52.472;13.380;2024-03-25T05:26:02;6.73;;;1.70;;
69008;SDS011;56065;52.472;13.380;2024-03-25T05:28:28;5.33;;;1.13;;
69008;SDS011;56065;52.472;13.380;2024-03-25T05:30:53;5.17;;;1.40;;
69008;SDS011;56065;52.472;13.380;2024-03-25T05:33:18;6.93;;;1.70;;
69008;SDS011;56065;52.472;13.380;2024-03-25T05:35:43;8.27;;;1.73;;
69008;SDS011;56065;52.472;13.380;2024-03-25T05:38:09;5.83;;;1.40;;
69008;SDS011;56065;52.472;13.380;2024-03-25T05:40:34;6.47;;;1.50;;
69008;SDS011;56065;52.472;13.380;2024-03-25T05:42:59;6.30;;;1.63;;
69008;SDS011;56065;52.472;13.380;2024-03-25T05:45:24;7.17;;;1.73;;
69008;SDS011;56065;52.472;13.380;2024-03-25T05:47:50;8.57;;;1.60;;
69008;SDS011;56065;52.472;13.380;2024-03-25T05:50:15;6.90;;;1.57;;
69008;SDS011;56065;52.472;13.380;2024-03-25T05:52:41;7.80;;;1.93;;
69008;SDS011;56065;52.472;13.380;2024-03-25T05:55:06;8.13;;;1.60;;
69008;SDS011;56065;52.472;13.380;2024-03-25T05:57:32;7.88;;;1.27;;
69008;SDS011;56065;52.472;13.380;2024-03-25T05:59:57;8.00;;;1.87;;
69008;SDS011;56065;52.472;13.380;2024-03-25T06:02:22;8.47;;;1.87;;
69008;SDS011;56065;52.472;13.380;2024-03-25T06:04:49;7.65;;;1.75;;
69008;SDS011;56065;52.472;13.380;2024-03-25T06:07:14;9.43;;;1.80;;
69008;SDS011;56065;52.472;13.380;2024-03-25T06:09:39;7.20;;;1.60;;
69008;SDS011;56065;52.472;13.380;2024-03-25T06:12:05;9.27;;;1.53;;
69008;SDS011;56065;52.472;13.380;2024-03-25T06:14:30;5.87;;;1.20;;
69008;SDS011;56065;52.472;13.380;2024-03-25T06:16:55;8.13;;;1.70;;
69008;SDS011;56065;52.472;13.380;2024-03-25T06:19:21;10.40;;;1.63;;
69008;SDS011;56065;52.472;13.380;2024-03-25T06:21:46;5.83;;;1.67;;
69008;SDS011;56065;52.472;13.380;2024-03-25T06:24:11;9.87;;;2.00;;
69008;SDS011;56065;52.472;13.380;2024-03-25T06:26:36;6.53;;;1.50;;
69008;SDS011;56065;52.472;13.380;2024-03-25T06:29:02;6.23;;;1.40;;
69008;SDS011;56065;52.472;13.380;2024-03-25T06:31:27;9.17;;;1.77;;
69008;SDS011;56065;52.472;13.380;2024-03-25T06:34:12;9.13;;;1.88;;
69008;SDS011;56065;52.472;13.380;2024-03-25T06:36:43;7.53;;;1.60;;
69008;SDS011;56065;52.472;13.380;2024-03-25T06:39:09;7.13;;;1.40;;
69008;SDS011;56065;52.472;13.380;2024-03-25T06:41:35;5.97;;;1.10;;
69008;SDS011;56065;52.472;13.380;2024-03-25T06:44:00;8.00;;;1.80;;
69008;SDS011;56065;52.472;13.380;2024-03-25T06:46:25;9.10;;;2.17;;
69008;SDS011;56065;52.472;13.380;2024-03-25T06:48:50;6.27;;;1.50;;
69008;SDS011;56065;52.472;13.380;2024-03-25T06:51:17;8.57;;;1.40;;
69008;SDS011;56065;52.472;13.380;2024-03-25T06:53:42;7.60;;;1.30;;
69008;SDS011;56065;52.472;13.380;2024-03-25T06:56:08;8.30;;;1.42;;
69008;SDS011;56065;52.472;13.380;2024-03-25T06:58:33;7.47;;;1.37;;
69008;SDS011;56065;52.472;13.380;2024-03-25T07:01:04;5.07;;;1.20;;
69008;SDS011;56065;52.472;13.380;2024-03-25T07:03:30;7.43;;;2.05;;
69008;SDS011;56065;52.472;13.380;2024-03-25T07:05:56;8.13;;;1.40;;
69008;SDS011;56065;52.472;13.380;2024-03-25T07:08:22;6.03;;;1.33;;
69008;SDS011;56065;52.472;13.380;2024-03-25T07:10:47;5.97;;;1.27;;
69008;SDS011;56065;52.472;13.380;2024-03-25T07:13:13;5.60;;;1.10;;
69008;SDS011;56065;52.472;13.380;2024-03-25T07:15:38;6.82;;;1.48;;
69008;SDS011;56065;52.472;13.380;2024-03-25T07:18:04;13.53;;;2.60;;
69008;SDS011;56065;52.472;13.380;2024-03-25T07:20:30;7.18;;;1.83;;
69008;SDS011;56065;52.472;13.380;2024-03-25T07:22:55;6.23;;;1.80;;
69008;SDS011;56065;52.472;13.380;2024-03-25T07:25:24;6.43;;;1.47;;
69008;SDS011;56065;52.472;13.380;2024-03-25T07:27:50;9.37;;;1.60;;
69008;SDS011;56065;52.472;13.380;2024-03-25T07:30:17;6.65;;;1.33;;
69008;SDS011;56065;52.472;13.380;2024-03-25T07:32:43;7.63;;;1.50;;
69008;SDS011;56065;52.472;13.380;2024-03-25T07:35:10;6.73;;;1.50;;
69008;SDS011;56065;52.472;13.380;2024-03-25T07:37:36;6.28;;;1.20;;
69008;SDS011;56065;52.472;13.380;2024-03-25T07:40:01;7.13;;;1.20;;
69008;SDS011;56065;52.472;13.380;2024-03-25T07:42:28;7.53;;;1.50;;
69008;SDS011;56065;52.472;13.380;2024-03-25T07:44:53;4.87;;;1.63;;
69008;SDS011;56065;52.472;13.380;2024-03-25T07:47:19;6.30;;;2.00;;
69008;SDS011;56065;52.472;13.380;2024-03-25T07:49:44;5.53;;;1.97;;
69008;SDS011;56065;52.472;13.380;2024-03-25T07:52:09;8.25;;;1.50;;
69008;SDS011;56065;52.472;13.380;2024-03-25T07:54:35;6.07;;;1.40;;
69008;SDS011;56065;52.472;13.380;2024-03-25T07:57:02;4.22;;;1.30;;
69008;SDS011;56065;52.472;13.380;2024-03-25T07:59:28;6.90;;;1.80;;
69008;SDS011;56065;52.472;13.380;2024-03-25T08:01:54;6.67;;;1.67;;
69008;SDS011;56065;52.472;13.380;2024-03-25T08:04:19;6.07;;;1.40;;
69008;SDS011;56065;52.472;13.380;2024-03-25T08:06:44;6.23;;;1.63;;
69008;SDS011;56065;52.472;13.380;2024-03-25T08:09:09;7.07;;;1.33;;
69008;SDS011;56065;52.472;13.380;2024-03-25T08:11:35;6.50;;;1.40;;
69008;SDS011;56065;52.472;13.380;2024-03-25T08:14:00;5.83;;;1.30;;
69008;SDS011;56065;52.472;13.380;2024-03-25T08:16:26;5.47;;;1.50;;
69008;SDS011;56065;52.472;13.380;2024-03-25T08:18:51;5.80;;;1.53;;
69008;SDS011;56065;52.472;13.380;2024-03-25T08:21:17;8.87;;;2.00;;
69008;SDS011;56065;52.472;13.380;2024-03-25T08:23:45;7.17;;;1.93;;
69008;SDS011;56065;52.472;13.380;2024-03-25T08:26:11;9.63;;;1.52;;
69008;SDS011;56065;52.472;13.380;2024-03-25T08:28:36;8.30;;;1.40;;
69008;SDS011;56065;52.472;13.380;2024-03-25T08:31:02;10.02;;;2.03;;
69008;SDS011;56065;52.472;13.380;2024-03-25T08:33:28;9.17;;;2.13;;
69008;SDS011;56065;52.472;13.380;2024-03-25T08:35:53;13.10;;;2.23;;
69008;SDS011;56065;52.472;13.380;2024-03-25T08:38:19;12.68;;;2.45;;
69008;SDS011;56065;52.472;13.380;2024-03-25T08:40:44;15.70;;;2.47;;
69008;SDS011;56065;52.472;13.380;2024-03-25T08:43:09;14.53;;;2.73;;
69008;SDS011;56065;52.472;13.380;2024-03-25T08:45:35;10.23;;;2.20;;
69008;SDS011;56065;52.472;13.380;2024-03-25T08:48:00;20.77;;;3.53;;
69008;SDS011;56065;52.472;13.380;2024-03-25T08:50:25;27.83;;;4.70;;
69008;SDS011;56065;52.472;13.380;2024-03-25T08:52:50;15.40;;;3.37;;
69008;SDS011;56065;52.472;13.380;2024-03-25T08:55:16;19.73;;;4.07;;
69008;SDS011;56065;52.472;13.380;2024-03-25T08:57:41;15.90;;;3.10;;
69008;SDS011;56065;52.472;13.380;2024-03-25T09:00:06;17.60;;;2.70;;
69008;SDS011;56065;52.472;13.380;2024-03-25T09:02:35;11.73;;;2.25;;
69008;SDS011;56065;52.472;13.380;2024-03-25T09:05:01;7.45;;;1.55;;
69008;SDS011;56065;52.472;13.380;2024-03-25T09:07:28;8.63;;;2.22;;
69008;SDS011;56065;52.472;13.380;2024-03-25T09:09:53;13.77;;;2.20;;
69008;SDS011;56065;52.472;13.380;2024-03-25T09:12:37;6.70;;;1.90;;
69008;SDS011;56065;52.472;13.380;2024-03-25T09:15:02;8.60;;;2.10;;
69008;SDS011;56065;52.472;13.380;2024-03-25T09:17:28;6.50;;;1.70;;
69008;SDS011;56065;52.472;13.380;2024-03-25T09:19:53;6.35;;;1.42;;
69008;SDS011;56065;52.472;13.380;2024-03-25T09:22:19;7.73;;;1.67;;
69008;SDS011;56065;52.472;13.380;2024-03-25T09:24:44;6.00;;;1.40;;
69008;SDS011;56065;52.472;13.380;2024-03-25T09:27:10;6.30;;;1.70;;
69008;SDS011;56065;52.472;13.380;2024-03-25T09:29:35;8.80;;;1.60;;
69008;SDS011;56065;52.472;13.380;2024-03-25T09:32:00;6.40;;;1.43;;
69008;SDS011;56065;52.472;13.380;2024-03-25T09:34:26;5.93;;;1.70;;
69008;SDS011;56065;52.472;13.380;2024-03-25T09:36:51;4.80;;;1.20;;
69008;SDS011;56065;52.472;13.380;2024-03-25T09:39:16;7.20;;;1.23;;
69008;SDS011;56065;52.472;13.380;2024-03-25T09:41:42;10.07;;;2.03;;
69008;SDS011;56065;52.472;13.380;2024-03-25T09:44:08;7.88;;;1.92;;
69008;SDS011;56065;52.472;13.380;2024-03-25T09:46:34;5.40;;;1.33;;
69008;SDS011;56065;52.472;13.380;2024-03-25T09:49:01;8.52;;;1.70;;
69008;SDS011;56065;52.472;13.380;2024-03-25T09:51:30;6.18;;;1.80;;
69008;SDS011;56065;52.472;13.380;2024-03-25T09:53:56;6.43;;;2.00;;
69008;SDS011;56065;52.472;13.380;2024-03-25T09:56:22;6.67;;;1.40;;
69008;SDS011;56065;52.472;13.380;2024-03-25T09:58:47;5.80;;;1.20;;
69008;SDS011;56065;52.472;13.380;2024-03-25T10:01:13;5.43;;;1.48;;
69008;SDS011;56065;52.472;13.380;2024-03-25T10:03:39;4.47;;;1.30;;
69008;SDS011;56065;52.472;13.380;2024-03-25T10:06:04;5.50;;;1.53;;
69008;SDS011;56065;52.472;13.380;2024-03-25T10:08:30;6.50;;;1.63;;
69008;SDS011;56065;52.472;13.380;2024-03-25T10:10:55;4.37;;;1.23;;
69008;SDS011;56065;52.472;13.380;2024-03-25T10:13:21;6.10;;;1.30;;
69008;SDS011;56065;52.472;13.380;2024-03-25T10:15:47;5.72;;;1.23;;
69008;SDS011;56065;52.472;13.380;2024-03-25T10:18:13;7.32;;;1.75;;
69008;SDS011;56065;52.472;13.380;2024-03-25T10:20:38;4.07;;;1.10;;
69008;SDS011;56065;52.472;13.380;2024-03-25T10:23:12;7.30;;;1.40;;
69008;SDS011;56065;52.472;13.380;2024-03-25T10:25:37;3.67;;;0.90;;
69008;SDS011;56065;52.472;13.380;2024-03-25T10:28:02;5.43;;;1.20;;
69008;SDS011;56065;52.472;13.380;2024-03-25T10:30:28;4.97;;;1.23;;
69008;SDS011;56065;52.472;13.380;2024-03-25T10:33:01;4.13;;;0.90;;
69008;SDS011;56065;52.472;13.380;2024-03-25T10:35:27;4.47;;;1.30;;
69008;SDS011;56065;52.472;13.380;2024-03-25T10:37:58;4.38;;;1.00;;
69008;SDS011;56065;52.472;13.380;2024-03-25T10:40:28;3.83;;;0.87;;
69008;SDS011;56065;52.472;13.380;2024-03-25T10:45:35;5.40;;;0.77;;
69008;SDS011;56065;52.472;13.380;2024-03-25T10:48:08;3.30;;;0.80;;
69008;SDS011;56065;52.472;13.380;2024-03-25T10:50:39;4.15;;;1.10;;
69008;SDS011;56065;52.472;13.380;2024-03-25T10:53:08;5.87;;;1.10;;
69008;SDS011;56065;52.472;13.380;2024-03-25T10:55:39;3.70;;;0.80;;
69008;SDS011;56065;52.472;13.380;2024-03-25T10:58:05;3.78;;;0.73;;
69008;SDS011;56065;52.472;13.380;2024-03-25T11:00:32;6.20;;;1.10;;
69008;SDS011;56065;52.472;13.380;2024-03-25T11:02:59;3.50;;;0.90;;
69008;SDS011;56065;52.472;13.380;2024-03-25T11:05:25;3.80;;;0.93;;
69008;SDS011;56065;52.472;13.380;2024-03-25T11:07:51;2.95;;;0.70;;
69008;SDS011;56065;52.472;13.380;2024-03-25T11:10:16;4.87;;;1.10;;
69008;SDS011;56065;52.472;13.380;2024-03-25T11:12:42;4.97;;;0.93;;
69008;SDS011;56065;52.472;13.380;2024-03-25T11:15:08;6.33;;;1.00;;
69008;SDS011;56065;52.472;13.380;2024-03-25T11:17:34;2.53;;;0.60;;
69008;SDS011;56065;52.472;13.380;2024-03-25T11:20:09;3.00;;;0.70;;
69008;SDS011;56065;52.472;13.380;2024-03-25T11:22:35;4.80;;;0.93;;
69008;SDS011;56065;52.472;13.380;2024-03-25T11:25:06;4.32;;;1.13;;
69008;SDS011;56065;52.472;13.380;2024-03-25T11:27:33;3.73;;;0.80;;
69008;SDS011;56065;52.472;13.380;2024-03-25T11:30:00;3.47;;;0.90;;
69008;SDS011;56065;52.472;13.380;2024-03-25T11:32:26;4.13;;;0.87;;
69008;SDS011;56065;52.472;13.380;2024-03-25T11:34:52;5.35;;;1.20;;
69008;SDS011;56065;52.472;13.380;2024-03-25T11:37:17;5.50;;;0.97;;
69008;SDS011;56065;52.472;13.380;2024-03-25T11:39:43;5.53;;;1.20;;
69008;SDS011;56065;52.472;13.380;2024-03-25T11:42:08;4.38;;;0.80;;
69008;SDS011;56065;52.472;13.380;2024-03-25T11:44:37;5.15;;;0.80;;
69008;SDS011;56065;52.472;13.380;2024-03-25T11:47:05;4.70;;;1.13;;
69008;SDS011;56065;52.472;13.380;2024-03-25T11:49:36;3.53;;;0.70;;
69008;SDS011;56065;52.472;13.380;2024-03-25T11:52:05;2.58;;;0.55;;
69008;SDS011;56065;52.472;13.380;2024-03-25T11:54:31;3.25;;;0.60;;
69008;SDS011;56065;52.472;13.380;2024-03-25T11:56:57;4.00;;;0.60;;
69008;SDS011;56065;52.472;13.380;2024-03-25T11:59:22;3.40;;;0.67;;
69008;SDS011;56065;52.472;13.380;2024-03-25T12:01:47;3.93;;;0.60;;
69008;SDS011;56065;52.472;13.380;2024-03-25T12:04:16;4.30;;;0.85;;
69008;SDS011;56065;52.472;13.380;2024-03-25T12:06:42;4.00;;;0.70;;
69008;SDS011;56065;52.472;13.380;2024-03-25T12:09:10;5.33;;;0.87;;
69008;SDS011;56065;52.472;13.380;2024-03-25T12:11:54;2.65;;;0.50;;
69008;SDS011;56065;52.472;13.380;2024-03-25T12:14:21;3.22;;;0.70;;
69008;SDS011;56065;52.472;13.380;2024-03-25T12:16:47;3.23;;;0.70;;
69008;SDS011;56065;52.472;13.380;2024-03-25T12:19:15;2.50;;;0.65;;
69008;SDS011;56065;52.472;13.380;2024-03-25T12:21:41;3.33;;;0.70;;
69008;SDS011;56065;52.472;13.380;2024-03-25T12:24:07;3.23;;;0.60;;
69008;SDS011;56065;52.472;13.380;2024-03-25T12:26:34;4.60;;;0.80;;
69008;SDS011;56065;52.472;13.380;2024-03-25T12:28:59;3.03;;;0.47;;
69008;SDS011;56065;52.472;13.380;2024-03-25T12:31:25;2.27;;;0.57;;
69008;SDS011;56065;52.472;13.380;2024-03-25T12:33:50;7.13;;;0.70;;
69008;SDS011;56065;52.472;13.380;2024-03-25T12:36:16;4.43;;;0.90;;
69008;SDS011;56065;52.472;13.380;2024-03-25T12:38:41;3.57;;;0.70;;
69008;SDS011;56065;52.472;13.380;2024-03-25T12:41:07;3.03;;;0.60;;
69008;SDS011;56065;52.472;13.380;2024-03-25T12:43:34;2.65;;;0.50;;
69008;SDS011;56065;52.472;13.380;2024-03-25T12:46:00;2.97;;;0.60;;
69008;SDS011;56065;52.472;13.380;2024-03-25T12:48:26;4.53;;;0.90;;
69008;SDS011;56065;52.472;13.380;2024-03-25T12:50:51;3.27;;;0.70;;
69008;SDS011;56065;52.472;13.380;2024-03-25T12:53:18;2.70;;;0.60;;
69008;SDS011;56065;52.472;13.380;2024-03-25T12:55:45;2.40;;;0.60;;
69008;SDS011;56065;52.472;13.380;2024-03-25T12:58:13;2.65;;;0.60;;
69008;SDS011;56065;52.472;13.380;2024-03-25T13:00:38;3.60;;;0.50;;
69008;SDS011;56065;52.472;13.380;2024-03-25T13:03:05;3.13;;;0.73;;
69008;SDS011;56065;52.472;13.380;2024-03-25T13:05:32;4.25;;;0.65;;
69008;SDS011;56065;52.472;13.380;2024-03-25T13:07:58;3.30;;;0.87;;
69008;SDS011;56065;52.472;13.380;2024-03-25T13:10:23;2.90;;;1.00;;
69008;SDS011;56065;52.472;13.380;2024-03-25T13:12:49;2.63;;;0.63;;
69008;SDS011;56065;52.472;13.380;2024-03-25T13:15:14;3.03;;;0.63;;
69008;SDS011;56065;52.472;13.380;2024-03-25T13:17:40;3.70;;;0.80;;
69008;SDS011;56065;52.472;13.380;2024-03-25T13:20:05;2.07;;;0.50;;
69008;SDS011;56065;52.472;13.380;2024-03-25T13:22:31;1.87;;;0.50;;
69008;SDS011;56065;52.472;13.380;2024-03-25T13:24:57;3.53;;;0.60;;
69008;SDS011;56065;52.472;13.380;2024-03-25T13:27:23;3.25;;;0.60;;
69008;SDS011;56065;52.472;13.380;2024-03-25T13:29:48;10.63;;;1.13;;
69008;SDS011;56065;52.472;13.380;2024-03-25T13:32:13;2.97;;;0.70;;
69008;SDS011;56065;52.472;13.380;2024-03-25T13:34:39;2.37;;;0.63;;
69008;SDS011;56065;52.472;13.380;2024-03-25T13:37:04;3.65;;;0.77;;
69008;SDS011;56065;52.472;13.380;2024-03-25T13:39:30;2.77;;;0.50;;
69008;SDS011;56065;52.472;13.380;2024-03-25T13:41:55;3.40;;;0.57;;
69008;SDS011;56065;52.472;13.380;2024-03-25T13:44:20;3.07;;;0.70;;
69008;SDS011;56065;52.472;13.380;2024-03-25T13:46:45;3.67;;;0.67;;
69008;SDS011;56065;52.472;13.380;2024-03-25T13:49:11;4.33;;;0.60;;
69008;SDS011;56065;52.472;13.380;2024-03-25T13:51:36;3.53;;;0.60;;
69008;SDS011;56065;52.472;13.380;2024-03-25T13:54:01;2.40;;;0.57;;
69008;SDS011;56065;52.472;13.380;2024-03-25T13:56:27;3.13;;;0.70;;
69008;SDS011;56065;52.472;13.380;2024-03-25T13:58:53;3.53;;;0.57;;
69008;SDS011;56065;52.472;13.380;2024-03-25T14:01:18;2.70;;;0.40;;
69008;SDS011;56065;52.472;13.380;2024-03-25T14:03:43;2.77;;;0.60;;
69008;SDS011;56065;52.472;13.380;2024-03-25T14:06:08;1.03;;;0.37;;
69008;SDS011;56065;52.472;13.380;2024-03-25T14:08:34;2.73;;;0.60;;
69008;SDS011;56065;52.472;13.380;2024-03-25T14:10:59;4.63;;;0.50;;
69008;SDS011;56065;52.472;13.380;2024-03-25T14:13:26;4.25;;;0.93;;
69008;SDS011;56065;52.472;13.380;2024-03-25T14:15:52;1.77;;;0.40;;
69008;SDS011;56065;52.472;13.380;2024-03-25T14:18:17;4.43;;;0.83;;
69008;SDS011;56065;52.472;13.380;2024-03-25T14:20:42;3.73;;;0.70;;
69008;SDS011;56065;52.472;13.380;2024-03-25T14:23:08;2.53;;;0.40;;
69008;SDS011;56065;52.472;13.380;2024-03-25T14:25:33;3.23;;;0.73;;
69008;SDS011;56065;52.472;13.380;2024-03-25T14:27:59;3.43;;;0.60;;